Time;durP1;ratioP1;P1;durP2;ratioP2;P2;SDS_P1;SDS_P2;PMS_P1;PMS_P2;Temp;Humidity;BMP_temperature;BMP_pressure;BME280_temperature;BME280_humidity;BME280_pressure;Samples;Min_cycle;Max_cycle;Signal;HPM_P1;HPM_P2
2022/12/18 00:00:52;;;;;;;6.32;4.60;;;;;;;9.54;89.98;97031.56;5134805;27;20050;-65
2022/12/18 00:03:22;;;;;;;6.97;4.85;;;;;;;9.57;89.66;97039.31;5134551;27;20047;-65
2022/12/18 00:05:50;;;;;;;8.40;5.25;;;;;;;9.58;89.56;97041.03;5134546;27;20047;-63
2022/12/18 00:08:18;;;;;;;8.73;5.53;;;;;;;9.58;89.55;97043.63;5134522;27;20054;-64
2022/12/18 00:10:45;;;;;;;9.02;5.07;;;;;;;9.61;89.29;97059.22;5134719;27;20135;-63
2022/12/18 00:13:13;;;;;;;6.50;5.22;;;;;;;9.58;89.34;97061.06;5134345;27;20055;-64
2022/12/18 00:15:41;;;;;;;7.57;5.25;;;;;;;9.59;89.20;97068.00;5134366;27;20047;-65
2022/12/18 00:18:10;;;;;;;6.97;5.05;;;;;;;9.60;88.92;97081.03;5134491;27;20051;-64
2022/12/18 00:20:39;;;;;;;10.77;5.50;;;;;;;9.63;88.99;97080.09;5134289;27;20130;-64
2022/12/18 00:23:07;;;;;;;7.43;5.53;;;;;;;9.67;89.24;97084.34;5134104;27;20053;-66
2022/12/18 00:25:35;;;;;;;7.07;5.53;;;;;;;9.65;89.12;97086.13;5134230;27;20414;-64
2022/12/18 00:28:02;;;;;;;6.80;5.10;;;;;;;9.72;89.20;97087.69;5134191;27;20043;-63
2022/12/18 00:30:29;;;;;;;7.68;5.63;;;;;;;9.77;88.82;97084.97;5134367;27;20087;-66
2022/12/18 00:32:57;;;;;;;6.38;5.15;;;;;;;9.73;89.02;97081.56;5133946;27;20107;-65
2022/12/18 00:35:26;;;;;;;7.57;4.80;;;;;;;9.75;88.69;97075.47;5134138;27;20054;-65
2022/12/18 00:37:53;;;;;;;7.93;5.00;;;;;;;9.75;88.84;97086.75;5134106;28;20043;-65
2022/12/18 00:40:20;;;;;;;6.90;5.25;;;;;;;9.79;88.52;97098.00;5134029;28;20082;-63
2022/12/18 00:42:56;;;;;;;10.13;5.43;;;;;;;9.82;88.37;97103.16;5133934;28;20061;-64
2022/12/18 00:45:26;;;;;;;6.78;4.70;;;;;;;9.82;87.85;97109.22;5133949;28;20055;-66
2022/12/18 00:47:53;;;;;;;6.65;3.85;;;;;;;9.82;88.03;97100.53;5134094;28;20051;-63
2022/12/18 00:50:21;;;;;;;6.13;4.72;;;;;;;9.78;88.04;97096.28;5133972;28;20043;-66
2022/12/18 00:52:49;;;;;;;9.38;4.72;;;;;;;9.72;87.62;97097.28;5133755;28;20055;-64
2022/12/18 00:55:18;;;;;;;9.15;4.55;;;;;;;9.68;87.76;97083.44;5133874;28;20481;-65
2022/12/18 00:57:45;;;;;;;5.72;4.40;;;;;;;9.62;87.36;97075.78;5133797;28;20043;-63
2022/12/18 01:00:15;;;;;;;4.88;4.20;;;;;;;9.51;88.03;97083.88;5133805;28;20058;-66
2022/12/18 01:02:42;;;;;;;7.57;4.53;;;;;;;9.44;88.22;97079.69;5134071;28;20055;-63
2022/12/18 01:05:10;;;;;;;5.88;4.47;;;;;;;9.41;88.64;97085.88;5134031;28;20069;-64
2022/12/18 01:07:37;;;;;;;6.85;5.25;;;;;;;9.43;88.93;97085.81;5133816;28;20074;-62
2022/12/18 01:10:08;;;;;;;5.80;4.72;;;;;;;9.40;88.82;97084.16;5133691;28;20051;-62
2022/12/18 01:12:35;;;;;;;;;;;;;;;9.33;88.81;97083.44;5134037;28;20553;-63
2022/12/18 01:15:02;;;;;;;7.10;4.45;;;;;;;9.33;88.96;97091.25;5133717;28;19972;-63
2022/12/18 01:17:29;;;;;;;7.50;4.80;;;;;;;9.27;88.73;97096.63;5133977;28;20472;-64
2022/12/18 01:19:56;;;;;;;5.57;4.93;;;;;;;9.30;88.88;97095.72;5133652;28;20104;-64
2022/12/18 01:22:23;;;;;;;6.72;4.95;;;;;;;9.35;88.94;97096.44;5133570;28;20047;-66
2022/12/18 01:24:50;;;;;;;5.85;5.20;;;;;;;9.35;88.64;97102.53;5133685;28;20039;-64
2022/12/18 01:27:19;;;;;;;5.95;4.78;;;;;;;9.35;88.53;97101.69;5133613;28;20047;-65
2022/12/18 01:29:46;;;;;;;6.43;4.90;;;;;;;9.36;88.39;97106.00;5133864;28;20496;-62
2022/12/18 01:32:13;;;;;;;5.50;4.65;;;;;;;9.39;88.02;97100.69;5133446;28;20051;-64
2022/12/18 01:34:40;;;;;;;11.27;4.85;;;;;;;9.37;87.57;97093.81;5133558;28;20389;-66
2022/12/18 01:37:07;;;;;;;5.40;4.85;;;;;;;9.41;87.44;97104.16;5133823;28;20099;-65
2022/12/18 01:39:35;;;;;;;12.70;6.38;;;;;;;9.38;87.04;97109.44;5133417;28;20053;-66
2022/12/18 01:42:12;;;;;;;9.10;5.78;;;;;;;9.48;86.90;97104.84;5133343;28;20043;-65
2022/12/18 01:45:02;;;;;;;6.70;5.35;;;;;;;9.55;86.49;97111.66;5133508;27;20043;-65
2022/12/18 01:47:37;;;;;;;7.03;5.30;;;;;;;9.58;86.43;97114.16;5137303;27;20082;-64
2022/12/18 01:50:09;;;;;;;6.35;5.07;;;;;;;9.59;86.26;97113.28;5136971;27;20074;-66
2022/12/18 01:52:38;;;;;;;7.70;5.32;;;;;;;9.63;86.07;97110.59;5136896;27;20055;-64
2022/12/18 01:55:08;;;;;;;9.82;5.65;;;;;;;9.65;86.02;97106.16;5137014;27;20054;-64
2022/12/18 01:57:35;;;;;;;7.73;5.47;;;;;;;9.59;85.93;97102.84;5136945;27;20100;-62
2022/12/18 02:00:10;;;;;;;17.58;10.35;;;;;;;9.51;86.03;97099.53;5136784;27;20499;-66
2022/12/18 02:02:37;;;;;;;15.18;8.00;;;;;;;9.44;86.02;97106.69;5136782;27;20050;-63
2022/12/18 02:05:05;;;;;;;13.27;6.97;;;;;;;9.40;86.02;97107.66;5136919;27;20134;-66
2022/12/18 02:07:44;;;;;;;6.90;5.88;;;;;;;9.29;86.28;97104.44;5136810;27;20378;-66
2022/12/18 02:10:18;;;;;;;7.72;5.70;;;;;;;9.20;86.85;97106.38;5136668;27;20039;-66
2022/12/18 02:12:53;;;;;;;9.85;5.53;;;;;;;9.18;86.97;97110.75;5136679;27;20089;-64
2022/12/18 02:15:28;;;;;;;7.25;5.00;;;;;;;9.21;87.02;97110.69;5136540;27;20557;-64
2022/12/18 02:17:59;;;;;;;6.28;5.10;;;;;;;9.25;86.44;97111.50;5136593;27;20050;-66
2022/12/18 02:20:34;;;;;;;10.35;5.30;;;;;;;9.26;86.14;97110.59;5136504;27;20083;-65
2022/12/18 02:23:13;;;;;;;5.88;4.43;;;;;;;9.21;86.00;97105.47;5136823;27;20059;-64
2022/12/18 02:26:11;;;;;;;6.00;4.85;;;;;;;9.08;86.56;97111.88;5136508;27;20040;-65
2022/12/18 02:28:45;;;;;;;5.25;4.70;;;;;;;9.06;86.82;97121.50;5110952;27;20043;-65
2022/12/18 02:31:17;;;;;;;5.55;4.53;;;;;;;9.08;86.64;97117.97;5136510;27;20095;-65
2022/12/18 02:33:46;;;;;;;10.88;5.45;;;;;;;9.15;86.37;97116.03;5136081;27;20054;-63
2022/12/18 02:36:15;;;;;;;6.55;5.00;;;;;;;9.09;86.30;97111.84;5136114;27;20542;-63
2022/12/18 02:38:45;;;;;;;6.03;4.75;;;;;;;9.05;86.51;97101.50;5136137;27;20047;-64
2022/12/18 02:41:14;;;;;;;5.97;4.80;;;;;;;9.04;86.73;97118.06;5136072;27;20058;-66
2022/12/18 02:43:48;;;;;;;10.23;6.93;;;;;;;9.05;86.64;97110.19;5135989;27;20057;-63
2022/12/18 02:46:28;;;;;;;6.82;5.50;;;;;;;9.11;86.77;97119.63;5135917;27;20047;-66
2022/12/18 02:49:00;;;;;;;7.70;5.90;;;;;;;9.13;86.10;97115.25;5136288;27;20047;-65
2022/12/18 02:51:34;;;;;;;9.25;5.95;;;;;;;9.05;86.45;97122.38;5135919;27;20047;-65
2022/12/18 02:54:10;;;;;;;9.10;7.07;;;;;;;9.05;86.63;97120.63;5135773;27;20082;-66
2022/12/18 02:56:43;;;;;;;7.85;4.82;;;;;;;9.09;86.18;97119.66;5134659;27;20048;-64
2022/12/18 02:59:15;;;;;;;5.82;4.82;;;;;;;9.06;86.44;97122.34;5135625;27;20054;-64
2022/12/18 03:01:50;;;;;;;16.23;8.77;;;;;;;9.03;86.43;97125.03;5135672;27;20075;-66
2022/12/18 03:04:22;;;;;;;9.82;6.30;;;;;;;9.09;86.44;97130.09;5135594;27;20051;-63
2022/12/18 03:06:54;;;;;;;7.63;5.70;;;;;;;9.14;86.22;97137.84;5135549;27;20079;-65
2022/12/18 03:09:25;;;;;;;14.23;8.48;;;;;;;9.14;86.36;97136.97;5135542;27;20088;-64
2022/12/18 03:14:50;;;;;;;18.45;9.60;;;;;;;9.11;86.52;97137.91;5135374;27;20131;-64
2022/12/18 03:17:20;;;;;;;9.75;6.57;;;;;;;9.15;86.82;97128.25;5135315;27;20082;-64
2022/12/18 03:19:50;;;;;;;11.73;7.30;;;;;;;9.16;86.95;97128.22;5135332;27;20092;-62
2022/12/18 03:22:18;;;;;;;11.30;6.72;;;;;;;9.22;86.40;97129.84;5135348;27;20481;-67
2022/12/18 03:24:47;;;;;;;8.07;6.13;;;;;;;9.25;86.16;97134.13;5135223;27;20079;-64
2022/12/18 03:27:18;;;;;;;8.15;4.88;;;;;;;9.25;85.75;97132.38;5135258;27;20050;-63
2022/12/18 03:29:50;;;;;;;11.05;4.78;;;;;;;9.27;85.55;97132.34;5135115;27;20139;-63
2022/12/18 03:32:22;;;;;;;6.65;5.03;;;;;;;9.28;84.97;97131.44;5134868;27;20040;-66
2022/12/18 03:34:52;;;;;;;7.57;4.97;;;;;;;9.25;85.04;97129.75;5134985;27;20476;-65
2022/12/18 03:37:19;;;;;;;6.80;5.00;;;;;;;9.26;85.06;97133.22;5135083;27;20051;-62
2022/12/18 03:39:46;;;;;;;6.78;5.35;;;;;;;9.28;85.00;97149.72;5134840;27;20578;-66
2022/12/18 03:42:21;;;;;;;6.68;4.95;;;;;;;9.19;85.17;97154.25;5134688;27;20146;-62
2022/12/18 03:44:57;;;;;;;5.70;4.88;;;;;;;9.14;84.90;97165.69;5134790;27;20043;-62
2022/12/18 03:47:29;;;;;;;5.70;4.72;;;;;;;9.02;85.46;97167.69;5134794;27;20062;-66
2022/12/18 03:50:02;;;;;;;10.75;4.95;;;;;;;8.97;85.81;97170.38;5134778;27;20047;-65
2022/12/18 03:52:35;;;;;;;5.40;4.60;;;;;;;8.98;85.99;97179.09;5134571;27;20051;-66
2022/12/18 03:55:05;;;;;;;7.55;4.70;;;;;;;8.95;85.90;97185.22;5134677;27;20086;-66
2022/12/18 03:57:34;;;;;;;5.60;3.85;;;;;;;8.99;86.88;97188.63;5134702;27;20057;-63
2022/12/18 04:00:06;;;;;;;7.93;4.50;;;;;;;8.98;86.04;97190.34;5134532;27;20489;-65
2022/12/18 04:02:34;;;;;;;6.57;4.85;;;;;;;9.00;86.00;97197.31;5134378;27;20115;-65
2022/12/18 04:05:06;;;;;;;5.00;4.38;;;;;;;9.04;85.41;97199.84;5134444;27;20092;-62
2022/12/18 04:07:34;;;;;;;6.07;4.65;;;;;;;9.02;85.58;97208.56;5134026;27;20051;-62
2022/12/18 04:10:02;;;;;;;5.93;4.53;;;;;;;8.92;85.74;97200.09;5134409;27;20050;-62
2022/12/18 04:12:30;;;;;;;5.22;4.63;;;;;;;8.95;85.48;97206.09;5134586;27;20047;-66
2022/12/18 04:14:58;;;;;;;7.75;4.72;;;;;;;8.96;85.86;97201.72;5134371;27;20047;-63
2022/12/18 04:17:26;;;;;;;7.25;5.00;;;;;;;8.89;85.91;97208.84;5134296;27;20489;-66
2022/12/18 04:19:53;;;;;;;4.82;4.38;;;;;;;8.89;86.13;97208.84;5134196;27;20434;-65
2022/12/18 04:22:20;;;;;;;7.22;5.20;;;;;;;8.85;85.68;97210.63;5134473;27;20053;-66
2022/12/18 04:24:48;;;;;;;6.97;4.63;;;;;;;8.78;85.29;97206.44;5134198;27;20438;-63
2022/12/18 04:27:16;;;;;;;4.45;4.05;;;;;;;8.78;85.18;97216.88;5134308;27;20047;-64
2022/12/18 04:29:43;;;;;;;6.75;4.20;;;;;;;8.75;85.01;97213.44;5134482;27;20122;-64
2022/12/18 04:32:11;;;;;;;5.47;4.93;;;;;;;8.64;84.98;97217.13;5134088;27;20108;-62
2022/12/18 04:34:39;;;;;;;5.25;3.83;;;;;;;8.54;85.09;97218.19;5133963;27;20085;-63
2022/12/18 04:37:06;;;;;;;8.30;4.13;;;;;;;8.41;85.48;97217.56;5134002;27;20081;-65
2022/12/18 04:39:33;;;;;;;6.00;4.18;;;;;;;8.33;85.68;97221.16;5134019;28;20046;-64
2022/12/18 04:42:00;;;;;;;6.32;4.03;;;;;;;8.34;85.65;97224.63;5133725;28;20043;-66
2022/12/18 04:44:28;;;;;;;5.50;4.45;;;;;;;8.33;86.30;97228.09;5133982;28;20450;-65
2022/12/18 04:46:55;;;;;;;6.18;3.92;;;;;;;8.30;85.96;97233.38;5133958;28;20039;-66
2022/12/18 04:49:22;;;;;;;4.60;3.60;;;;;;;8.22;86.30;97234.38;5134150;28;20047;-66
2022/12/18 04:51:51;;;;;;;4.45;3.83;;;;;;;8.18;86.39;97247.47;5134018;28;20043;-64
2022/12/18 04:54:21;;;;;;;5.55;3.88;;;;;;;8.19;86.35;97244.84;5133848;28;20047;-64
2022/12/18 04:56:49;;;;;;;4.50;3.60;;;;;;;8.17;86.18;97249.25;5134101;28;20075;-64
2022/12/18 04:59:16;;;;;;;4.18;3.30;;;;;;;8.18;85.90;97250.09;5133772;28;20043;-65
2022/12/18 05:01:44;;;;;;;3.95;3.58;;;;;;;8.21;86.12;97253.53;5133905;28;20043;-64
2022/12/18 05:04:11;;;;;;;3.72;3.22;;;;;;;8.19;85.72;97262.25;5133814;28;20043;-62
2022/12/18 05:06:39;;;;;;;4.90;3.33;;;;;;;8.22;85.99;97259.59;5133756;28;20129;-66
2022/12/18 05:09:07;;;;;;;4.35;3.22;;;;;;;8.18;85.60;97261.38;5133839;28;20092;-65
2022/12/18 05:11:37;;;;;;;4.60;3.30;;;;;;;8.27;85.92;97270.78;5133870;28;20043;-64
2022/12/18 05:14:04;;;;;;;4.13;3.50;;;;;;;8.27;85.39;97272.53;5133655;28;20047;-63
2022/12/18 05:16:32;;;;;;;3.72;3.10;;;;;;;8.28;85.47;97274.28;5133713;28;20100;-66
2022/12/18 05:18:59;;;;;;;5.50;2.95;;;;;;;8.27;85.07;97281.22;5133601;27;20130;-66
2022/12/18 05:21:27;;;;;;;3.42;2.78;;;;;;;8.30;84.71;97289.00;5136780;27;20043;-65
2022/12/18 05:23:54;;;;;;;4.20;2.42;;;;;;;8.25;84.01;97290.81;5137599;27;20135;-64
2022/12/18 05:26:22;;;;;;;2.17;1.98;;;;;;;8.24;83.65;97298.69;5137587;27;20094;-66
2022/12/18 05:28:49;;;;;;;4.18;2.45;;;;;;;8.31;83.56;97293.31;5137481;27;20085;-65
2022/12/18 05:31:16;;;;;;;4.10;2.05;;;;;;;8.32;83.50;97302.00;5137409;27;20050;-66
2022/12/18 05:33:44;;;;;;;4.22;2.58;;;;;;;8.29;83.57;97302.91;5137314;27;20058;-65
2022/12/18 05:36:11;;;;;;;5.15;2.70;;;;;;;8.27;83.33;97306.41;5137461;27;20442;-63
2022/12/18 05:38:40;;;;;;;2.92;2.40;;;;;;;8.25;83.30;97308.22;5137176;27;20047;-62
2022/12/18 05:41:08;;;;;;;3.13;2.58;;;;;;;8.22;83.47;97312.56;5137237;27;20416;-63
2022/12/18 05:43:38;;;;;;;2.85;2.40;;;;;;;8.14;83.41;97317.06;5137068;27;20047;-64
2022/12/18 05:46:07;;;;;;;2.58;2.38;;;;;;;8.16;82.70;97322.25;5137179;27;20047;-65
2022/12/18 05:48:36;;;;;;;2.88;2.55;;;;;;;8.20;83.46;97323.91;5137343;27;20051;-65
2022/12/18 05:51:08;;;;;;;4.13;2.53;;;;;;;8.23;83.40;97326.47;5137052;27;20134;-66
2022/12/18 05:53:36;;;;;;;3.15;2.33;;;;;;;8.25;82.53;97327.28;5136985;27;20130;-65
2022/12/18 05:56:06;;;;;;;3.58;2.60;;;;;;;8.23;83.03;97326.47;5136920;27;20404;-67
2022/12/18 05:58:34;;;;;;;3.13;2.38;;;;;;;8.24;82.52;97329.97;5136860;27;20108;-62
2022/12/18 06:01:10;;;;;;;2.75;2.38;;;;;;;8.23;82.68;97329.09;5136819;27;20534;-64
2022/12/18 06:03:37;;;;;;;3.00;2.13;;;;;;;8.20;82.19;97336.94;5136839;27;20043;-66
2022/12/18 06:06:05;;;;;;;2.97;2.40;;;;;;;8.17;82.71;97335.25;5136837;27;20054;-66
2022/12/18 06:08:33;;;;;;;3.00;2.72;;;;;;;8.16;82.31;97335.28;5136781;27;20074;-64
2022/12/18 06:11:01;;;;;;;4.13;3.28;;;;;;;8.19;82.33;97340.44;5136618;27;20043;-66
2022/12/18 06:13:28;;;;;;;3.38;2.65;;;;;;;8.16;82.37;97351.75;5136534;27;20047;-65
2022/12/18 06:15:55;;;;;;;4.03;2.80;;;;;;;8.18;82.61;97352.63;5136588;27;20044;-63
2022/12/18 06:18:23;;;;;;;4.00;2.80;;;;;;;8.25;82.39;97357.72;5136455;27;20047;-62
2022/12/18 06:20:56;;;;;;;4.03;2.63;;;;;;;8.18;82.72;97367.38;5136693;27;20047;-64
2022/12/18 06:23:24;;;;;;;3.45;2.58;;;;;;;8.19;83.12;97371.72;5136425;27;20134;-62
2022/12/18 06:25:51;;;;;;;3.72;2.80;;;;;;;8.27;83.35;97371.59;5136408;27;20039;-63
2022/12/18 06:28:18;;;;;;;4.28;2.95;;;;;;;8.30;82.61;97376.75;5136579;27;20047;-63
2022/12/18 06:30:46;;;;;;;3.00;2.60;;;;;;;8.34;81.70;97379.28;5136082;27;20134;-63
2022/12/18 06:33:13;;;;;;;2.78;2.47;;;;;;;8.36;81.68;97378.44;5136234;27;20516;-63
2022/12/18 06:35:42;;;;;;;2.72;2.25;;;;;;;8.27;81.40;97382.00;5136527;27;20055;-64
2022/12/18 06:38:10;;;;;;;3.08;2.78;;;;;;;8.22;81.65;97395.16;5136149;27;20078;-63
2022/12/18 06:40:39;;;;;;;2.75;2.53;;;;;;;8.23;81.28;97391.66;5136012;27;20409;-65
2022/12/18 06:43:07;;;;;;;2.33;2.13;;;;;;;8.23;81.21;97399.47;5136014;27;20039;-66
2022/12/18 06:45:34;;;;;;;2.28;2.08;;;;;;;8.17;81.17;97403.03;5136016;27;20047;-65
2022/12/18 06:48:04;;;;;;;3.45;2.42;;;;;;;8.22;81.35;97403.81;5136124;27;20043;-63
2022/12/18 06:50:32;;;;;;;2.70;2.05;;;;;;;8.22;80.92;97413.38;5136012;27;20082;-63
2022/12/18 06:53:00;;;;;;;3.05;2.45;;;;;;;8.16;80.72;97422.13;5135943;27;20103;-63
2022/12/18 06:55:27;;;;;;;3.53;2.25;;;;;;;8.18;80.37;97427.31;5135762;27;20055;-65
2022/12/18 06:57:54;;;;;;;3.35;2.50;;;;;;;8.19;80.80;97429.06;5135727;27;20050;-65
2022/12/18 07:00:23;;;;;;;3.55;2.67;;;;;;;8.22;80.25;97439.47;5135955;27;20480;-63
2022/12/18 07:02:51;;;;;;;3.85;1.80;;;;;;;8.17;79.53;97441.25;5135637;27;20519;-65
2022/12/18 07:05:20;;;;;;;2.30;2.05;;;;;;;8.13;79.41;97443.03;5135581;27;20118;-63
2022/12/18 07:07:50;;;;;;;2.40;2.20;;;;;;;8.05;79.41;97452.72;5135420;27;20054;-64
2022/12/18 07:10:19;;;;;;;4.53;2.05;;;;;;;8.02;79.83;97456.22;5135733;27;20083;-65
2022/12/18 07:12:51;;;;;;;1.95;1.75;;;;;;;8.05;80.32;97450.09;5135379;27;20139;-65
2022/12/18 07:15:19;;;;;;;3.08;2.13;;;;;;;8.03;79.08;97450.13;5135245;27;20047;-62
2022/12/18 07:17:46;;;;;;;3.03;2.17;;;;;;;8.02;79.68;97453.63;5135376;27;20042;-61
2022/12/18 07:20:15;;;;;;;5.32;2.10;;;;;;;8.00;79.08;97457.13;5135354;27;20446;-66
2022/12/18 07:22:43;;;;;;;2.65;2.20;;;;;;;7.98;79.28;97462.38;5135263;27;20047;-63
2022/12/18 07:25:10;;;;;;;2.70;2.22;;;;;;;7.97;78.93;97463.22;5135172;27;20138;-65
2022/12/18 07:27:40;;;;;;;3.38;2.05;;;;;;;7.94;79.35;97466.75;5135162;27;20047;-63
2022/12/18 07:30:09;;;;;;;2.67;2.25;;;;;;;7.89;79.43;97465.91;5135104;27;20047;-65
2022/12/18 07:32:36;;;;;;;2.63;1.98;;;;;;;7.90;79.60;97477.22;5135267;27;20047;-66
2022/12/18 07:35:04;;;;;;;3.20;2.28;;;;;;;7.92;79.28;97471.09;5134982;27;20051;-66
2022/12/18 07:37:32;;;;;;;2.80;2.42;;;;;;;7.90;78.92;97470.28;5135179;27;20054;-65
2022/12/18 07:39:59;;;;;;;2.92;2.63;;;;;;;7.92;78.92;97478.06;5134825;27;20043;-63
2022/12/18 07:42:33;;;;;;;2.50;2.30;;;;;;;7.94;79.05;97471.94;5134343;27;20051;-62
2022/12/18 07:45:03;;;;;;;4.93;2.47;;;;;;;7.93;79.13;97477.19;5134721;27;20043;-64
2022/12/18 07:47:31;;;;;;;3.00;2.13;;;;;;;7.88;79.53;97477.22;5134794;27;20073;-62
2022/12/18 07:49:59;;;;;;;2.95;2.47;;;;;;;7.92;79.03;97473.69;5134791;27;20054;-62
2022/12/18 07:52:33;;;;;;;2.92;2.55;;;;;;;7.88;79.46;97479.84;5134723;27;20109;-64
2022/12/18 07:55:01;;;;;;;5.25;2.63;;;;;;;7.89;79.05;97484.16;5134510;27;20057;-63
2022/12/18 07:57:30;;;;;;;5.72;2.92;;;;;;;7.90;79.17;97485.91;5134581;27;20557;-64
2022/12/18 07:59:57;;;;;;;8.70;3.35;;;;;;;7.91;79.73;97486.75;5134520;27;20408;-62
2022/12/18 08:02:26;;;;;;;6.45;3.15;;;;;;;7.87;79.34;97492.88;5134487;27;20047;-63
2022/12/18 08:04:53;;;;;;;4.47;2.92;;;;;;;7.88;78.49;97484.16;5134507;27;20104;-61
2022/12/18 08:07:21;;;;;;;3.47;3.13;;;;;;;7.91;78.44;97491.97;5134475;27;20523;-64
2022/12/18 08:09:49;;;;;;;4.18;3.15;;;;;;;7.96;78.58;97487.56;5134777;27;20047;-61
2022/12/18 08:12:16;;;;;;;4.80;3.20;;;;;;;7.91;77.92;97495.44;5134592;27;20093;-65
2022/12/18 08:14:44;;;;;;;6.82;3.40;;;;;;;7.93;78.28;97492.81;5134167;27;20135;-64
2022/12/18 08:17:11;;;;;;;4.47;3.60;;;;;;;7.95;78.26;97504.94;5134282;27;20130;-63
2022/12/18 08:19:40;;;;;;;5.35;3.85;;;;;;;7.92;78.32;97507.56;5134365;27;20058;-64
2022/12/18 08:22:09;;;;;;;4.45;3.75;;;;;;;7.87;77.91;97504.19;5134564;27;20046;-63
2022/12/18 08:24:38;;;;;;;6.80;3.92;;;;;;;7.86;76.74;97514.59;5134239;27;20058;-63
2022/12/18 08:27:05;;;;;;;5.18;4.20;;;;;;;7.86;76.46;97512.88;5134075;27;20099;-66
2022/12/18 08:29:38;;;;;;;4.80;3.70;;;;;;;7.79;76.59;97512.06;5134222;27;20499;-62
2022/12/18 08:32:05;;;;;;;5.40;4.03;;;;;;;7.68;76.37;97519.16;5134098;27;20473;-62
2022/12/18 08:34:34;;;;;;;7.63;4.60;;;;;;;7.74;76.37;97523.44;5133983;27;20468;-63
2022/12/18 08:37:03;;;;;;;8.85;5.22;;;;;;;7.76;76.81;97516.44;5133872;27;20047;-63
2022/12/18 08:39:30;;;;;;;10.73;5.72;;;;;;;7.81;76.66;97520.75;5134233;28;20493;-64
2022/12/18 08:44:42;;;;;;;8.93;5.85;;;;;;;7.85;75.86;97511.13;5134170;28;20054;-63
2022/12/18 08:47:10;;;;;;;10.02;5.00;;;;;;;7.88;76.26;97518.91;5133904;28;20050;-64
2022/12/18 08:49:37;;;;;;;6.20;4.53;;;;;;;7.91;75.17;97507.59;5134010;28;20047;-62
2022/12/18 08:52:07;;;;;;;5.53;4.35;;;;;;;7.87;74.75;97511.13;5133836;28;20051;-63
2022/12/18 08:54:38;;;;;;;9.00;4.32;;;;;;;7.82;74.15;97508.56;5135697;27;20046;-64
2022/12/18 08:57:05;;;;;;;6.03;4.57;;;;;;;7.81;75.40;97512.06;5137999;27;20053;-63
2022/12/18 08:59:33;;;;;;;9.05;4.63;;;;;;;7.80;75.88;97503.38;5138097;27;20051;-65
2022/12/18 09:02:00;;;;;;;7.05;4.93;;;;;;;7.74;75.45;97506.06;5137910;27;20062;-63
2022/12/18 09:04:28;;;;;;;8.40;5.00;;;;;;;7.71;76.28;97509.53;5138049;27;20047;-65
2022/12/18 09:06:57;;;;;;;6.93;4.90;;;;;;;7.72;75.71;97513.03;5138112;27;20050;-63
2022/12/18 09:09:29;;;;;;;6.30;4.95;;;;;;;7.72;75.69;97513.03;5137869;27;20076;-66
2022/12/18 09:11:59;;;;;;;7.00;4.93;;;;;;;7.69;76.39;97513.94;5137847;27;20062;-66
2022/12/18 09:14:26;;;;;;;7.63;5.15;;;;;;;7.61;76.05;97513.13;5137697;27;20484;-64
2022/12/18 09:16:54;;;;;;;6.43;4.75;;;;;;;7.57;75.84;97516.66;5137851;27;20047;-59
2022/12/18 09:19:22;;;;;;;9.63;5.20;;;;;;;7.60;75.32;97516.63;5137634;27;20044;-61
2022/12/18 09:21:50;;;;;;;6.75;4.90;;;;;;;7.62;76.05;97525.28;5137548;27;20051;-64
2022/12/18 09:24:18;;;;;;;7.78;4.97;;;;;;;7.58;75.42;97513.16;5137832;27;20050;-63
2022/12/18 09:26:47;;;;;;;6.50;5.15;;;;;;;7.62;74.95;97530.50;5137574;27;20051;-62
2022/12/18 09:29:14;;;;;;;8.20;5.13;;;;;;;7.64;75.41;97522.66;5137590;27;20051;-60
2022/12/18 09:31:41;;;;;;;7.20;4.93;;;;;;;7.67;74.85;97531.31;5137490;27;20047;-65
2022/12/18 09:34:10;;;;;;;6.75;4.70;;;;;;;7.69;74.91;97523.47;5137255;27;20485;-60
2022/12/18 09:36:38;;;;;;;5.10;3.95;;;;;;;7.75;74.18;97527.75;5137294;27;20043;-63
2022/12/18 09:39:06;;;;;;;7.38;4.85;;;;;;;7.84;74.37;97525.03;5137287;27;20049;-64
2022/12/18 09:41:44;;;;;;;7.30;4.70;;;;;;;7.84;73.72;97527.66;5137225;27;20048;-65
2022/12/18 09:44:21;;;;;;;8.43;4.70;;;;;;;7.79;72.25;97519.00;5096521;28;20398;-61
2022/12/18 09:46:53;;;;;;;6.35;4.60;;;;;;;7.76;71.78;97525.13;5096264;28;20051;-65
2022/12/18 09:49:27;;;;;;;6.20;4.82;;;;;;;7.75;70.88;97532.97;5096198;28;20059;-63
2022/12/18 09:51:58;;;;;;;5.28;4.13;;;;;;;7.73;71.24;97538.19;5096147;28;20399;-62
2022/12/18 09:54:32;;;;;;;5.53;4.05;;;;;;;7.71;70.62;97540.81;5096058;28;20071;-64
2022/12/18 09:57:00;;;;;;;6.18;4.05;;;;;;;7.71;70.60;97534.75;5096000;28;20131;-63
2022/12/18 09:59:37;;;;;;;8.30;4.35;;;;;;;7.74;70.43;97539.94;5096007;28;20554;-64
2022/12/18 10:02:16;;;;;;;7.28;4.05;;;;;;;7.83;70.35;97538.97;5096007;28;20452;-64
2022/12/18 10:04:44;;;;;;;6.82;4.15;;;;;;;7.78;69.12;97525.13;5095921;28;20071;-63
2022/12/18 10:07:20;;;;;;;6.07;4.15;;;;;;;7.73;69.37;97532.97;5095203;28;20547;-65
2022/12/18 10:09:59;;;;;;;5.47;3.97;;;;;;;7.68;69.13;97521.75;5095919;28;20048;-63
2022/12/18 10:12:34;;;;;;;4.85;3.50;;;;;;;7.75;68.91;97541.66;5095643;28;20048;-63
2022/12/18 10:15:12;;;;;;;5.45;3.72;;;;;;;7.74;69.88;97539.94;5095601;28;20059;-65
2022/12/18 10:17:45;;;;;;;6.18;4.07;;;;;;;7.78;69.78;97533.81;5095536;28;20127;-60
2022/12/18 10:20:18;;;;;;;7.05;5.03;;;;;;;7.78;70.04;97545.94;5095585;28;20071;-64
2022/12/18 10:22:57;;;;;;;7.18;4.60;;;;;;;7.75;69.91;97546.84;5095564;28;20044;-66
2022/12/18 10:25:31;;;;;;;7.57;3.90;;;;;;;7.69;69.89;97547.78;5095675;28;20129;-61
2022/12/18 10:28:11;;;;;;;6.25;4.43;;;;;;;7.64;71.12;97549.56;5095221;28;20415;-61
2022/12/18 10:30:46;;;;;;;5.90;3.90;;;;;;;7.61;72.06;97554.78;5095466;28;20394;-64
2022/12/18 10:33:24;;;;;;;5.78;4.18;;;;;;;7.60;74.20;97553.09;5095308;28;20569;-60
2022/12/18 10:35:53;;;;;;;5.47;4.13;;;;;;;7.62;73.95;97553.94;5095265;28;20136;-63
2022/12/18 10:38:28;;;;;;;8.38;4.40;;;;;;;7.57;74.80;97543.56;5095554;28;20482;-61
2022/12/18 10:41:02;;;;;;;5.10;3.97;;;;;;;7.61;75.56;97549.59;5095204;28;20048;-64
2022/12/18 10:43:32;;;;;;;9.60;4.90;;;;;;;7.49;76.15;97540.16;5125389;27;20485;-60
2022/12/18 10:46:19;;;;;;;8.82;5.22;;;;;;;7.50;78.26;97554.94;5136052;27;20055;-62
2022/12/18 10:48:55;;;;;;;6.45;4.38;;;;;;;7.54;78.70;97550.53;5135837;27;20047;-60
2022/12/18 10:51:27;;;;;;;6.05;4.95;;;;;;;7.43;78.00;97551.50;5136256;27;20047;-63
2022/12/18 10:54:03;;;;;;;6.22;4.90;;;;;;;7.42;79.36;97551.50;5135836;27;20086;-64
2022/12/18 10:56:35;;;;;;;8.38;5.53;;;;;;;7.30;79.89;97555.97;5135673;27;20482;-63
2022/12/18 10:59:05;;;;;;;8.93;6.18;;;;;;;7.32;79.92;97568.97;5135761;27;20040;-66
2022/12/18 11:01:49;;;;;;;6.55;5.20;;;;;;;7.36;80.16;97565.44;5135935;27;20043;-61
2022/12/18 11:04:21;;;;;;;7.82;5.68;;;;;;;7.22;79.58;97568.16;5135646;27;20147;-62
2022/12/18 11:07:01;;;;;;;8.23;5.57;;;;;;;7.19;81.08;97565.56;5135553;27;20459;-62
2022/12/18 11:09:31;;;;;;;8.13;6.00;;;;;;;7.16;81.62;97570.81;5135748;27;20088;-65
2022/12/18 11:12:06;;;;;;;7.65;5.60;;;;;;;7.03;81.32;97568.31;5135677;27;20046;-60
2022/12/18 11:14:49;;;;;;;10.30;6.05;;;;;;;7.02;82.70;97569.19;5135334;27;20050;-66
2022/12/18 11:17:27;;;;;;;8.88;5.70;;;;;;;6.92;82.76;97570.09;5134599;27;20137;-63
2022/12/18 11:20:00;;;;;;;6.72;5.45;;;;;;;6.84;83.75;97572.78;5135220;27;20404;-63
2022/12/18 11:22:30;;;;;;;9.05;6.57;;;;;;;6.82;84.83;97564.13;5135296;27;20043;-63
2022/12/18 11:25:01;;;;;;;12.95;6.45;;;;;;;6.75;84.46;97573.72;5135234;27;20045;-62
2022/12/18 11:27:29;;;;;;;;;;;;;;;6.77;84.90;97565.91;5135630;27;20100;-64
2022/12/18 11:30:11;;;;;;;8.63;6.00;;;;;;;6.65;85.58;97572.03;5135227;27;20399;-65
2022/12/18 11:32:44;;;;;;;9.10;7.15;;;;;;;6.63;85.58;97571.16;5135115;27;20043;-61
2022/12/18 11:35:18;;;;;;;9.52;6.60;;;;;;;6.63;86.04;97578.97;5135010;27;20126;-63
2022/12/18 11:37:52;;;;;;;11.27;7.75;;;;;;;6.63;87.07;97587.66;5135088;27;20047;-64
2022/12/18 11:40:27;;;;;;;15.02;8.20;;;;;;;6.66;87.25;97578.97;5134758;27;20510;-62
2022/12/18 11:43:00;;;;;;;13.23;8.07;;;;;;;6.72;87.77;97580.66;5134774;27;20051;-61
2022/12/18 11:45:31;;;;;;;14.32;8.13;;;;;;;6.74;88.01;97587.56;5135000;27;20047;-64
2022/12/18 11:48:06;;;;;;;16.42;8.35;;;;;;;6.74;88.42;97577.16;5134929;27;20050;-66
2022/12/18 11:50:45;;;;;;;13.23;8.40;;;;;;;6.79;88.43;97583.22;5134761;27;20055;-62
2022/12/18 11:53:14;;;;;;;11.80;7.25;;;;;;;6.75;88.12;97570.22;5134681;27;20083;-60
2022/12/18 11:55:55;;;;;;;9.80;7.65;;;;;;;6.77;87.78;97568.50;5134594;27;20050;-61
2022/12/18 11:58:36;;;;;;;9.13;6.38;;;;;;;6.67;87.26;97565.94;5135022;27;20054;-65
2022/12/18 12:01:14;;;;;;;8.93;6.20;;;;;;;6.64;88.09;97571.16;5134609;27;20385;-63